sensor_id;sensor_type;location;lat;lon;timestamp;P1;P2;P0
72918;PMS7003;61063;55.700;26.994;2022-07-21T00:00:56;1.5;0.7;0.6
72918;PMS7003;61063;55.700;26.994;2022-07-21T00:05:56;1.6;0.8;0.6
72918;PMS7003;61063;55.700;26.994;2022-07-21T00:10:56;1.2;0.7;0.7
72918;PMS7003;61063;55.700;26.994;2022-07-21T00:15:56;1.4;1.1;0.7
72918;PMS7003;61063;55.700;26.994;2022-07-21T00:20:56;1.4;1;0.9
72918;PMS7003;61063;55.700;26.994;2022-07-21T00:25:56;1.1;0.9;0.9
72918;PMS7003;61063;55.700;26.994;2022-07-21T00:30:56;1.3;1;0.8
72918;PMS7003;61063;55.700;26.994;2022-07-21T00:35:56;1.2;1;0.8
72918;PMS7003;61063;55.700;26.994;2022-07-21T00:40:56;1.2;1;0.8
72918;PMS7003;61063;55.700;26.994;2022-07-21T00:45:56;1.6;1;0.8
72918;PMS7003;61063;55.700;26.994;2022-07-21T00:50:56;1.2;1.2;1
72918;PMS7003;61063;55.700;26.994;2022-07-21T00:55:57;1.4;1.1;0.9
72918;PMS7003;61063;55.700;26.994;2022-07-21T01:00:56;1.6;1.4;1.1
72918;PMS7003;61063;55.700;26.994;2022-07-21T01:05:57;1.8;1.2;0.9
72918;PMS7003;61063;55.700;26.994;2022-07-21T01:10:56;1.6;1.1;0.9
72918;PMS7003;61063;55.700;26.994;2022-07-21T01:15:56;1.8;1.6;1.4
72918;PMS7003;61063;55.700;26.994;2022-07-21T01:20:56;1.5;1.3;1.1
72918;PMS7003;61063;55.700;26.994;2022-07-21T01:25:56;1.9;1.1;0.9
72918;PMS7003;61063;55.700;26.994;2022-07-21T01:30:56;1.5;1.4;1.1
72918;PMS7003;61063;55.700;26.994;2022-07-21T01:35:56;1.6;1.5;1.1
72918;PMS7003;61063;55.700;26.994;2022-07-21T01:40:58;2.4;1.2;1
72918;PMS7003;61063;55.700;26.994;2022-07-21T01:45:56;2;1.4;1.1
72918;PMS7003;61063;55.700;26.994;2022-07-21T01:50:56;2;1.6;1.3
72918;PMS7003;61063;55.700;26.994;2022-07-21T01:55:56;2.3;1.8;1.5
72918;PMS7003;61063;55.700;26.994;2022-07-21T02:00:56;2.1;1.5;1.3
72918;PMS7003;61063;55.700;26.994;2022-07-21T02:06:00;2.4;1.7;1.4
72918;PMS7003;61063;55.700;26.994;2022-07-21T02:10:56;1.7;1.4;1.2
72918;PMS7003;61063;55.700;26.994;2022-07-21T02:15:56;2.3;1.5;1.2
72918;PMS7003;61063;55.700;26.994;2022-07-21T02:20:56;2.3;1.9;1.6
72918;PMS7003;61063;55.700;26.994;2022-07-21T02:25:56;2.1;1.7;1.5
72918;PMS7003;61063;55.700;26.994;2022-07-21T02:30:57;2.1;1.7;1.5
72918;PMS7003;61063;55.700;26.994;2022-07-21T02:35:56;2.4;2.2;1.7
72918;PMS7003;61063;55.700;26.994;2022-07-21T02:40:56;2.5;2.1;1.7
72918;PMS7003;61063;55.700;26.994;2022-07-21T02:45:56;2.5;1.9;1.6
72918;PMS7003;61063;55.700;26.994;2022-07-21T02:50:56;2.7;2;1.8
72918;PMS7003;61063;55.700;26.994;2022-07-21T02:55:56;3.1;2.2;2
72918;PMS7003;61063;55.700;26.994;2022-07-21T03:00:57;2.9;2.3;2
72918;PMS7003;61063;55.700;26.994;2022-07-21T03:05:57;3.7;2.4;2
72918;PMS7003;61063;55.700;26.994;2022-07-21T03:10:56;2.6;2.2;1.8
72918;PMS7003;61063;55.700;26.994;2022-07-21T03:15:56;2.7;2.4;2
72918;PMS7003;61063;55.700;26.994;2022-07-21T03:20:56;2.8;1.8;1.5
72918;PMS7003;61063;55.700;26.994;2022-07-21T03:25:56;3.3;2.8;2.2
72918;PMS7003;61063;55.700;26.994;2022-07-21T03:30:56;2.7;2.2;2
72918;PMS7003;61063;55.700;26.994;2022-07-21T03:35:56;2.9;2.4;1.9
72918;PMS7003;61063;55.700;26.994;2022-07-21T03:40:56;2.3;2.2;1.7
72918;PMS7003;61063;55.700;26.994;2022-07-21T03:45:56;3.3;2.7;2.3
72918;PMS7003;61063;55.700;26.994;2022-07-21T03:50:56;3.2;2.6;2.3
72918;PMS7003;61063;55.700;26.994;2022-07-21T03:55:56;3.4;2.7;2.2
72918;PMS7003;61063;55.700;26.994;2022-07-21T04:00:56;3.5;2.9;2.3
72918;PMS7003;61063;55.700;26.994;2022-07-21T04:05:56;3.3;2.6;2.3
72918;PMS7003;61063;55.700;26.994;2022-07-21T04:10:56;3.1;2.7;2.3
72918;PMS7003;61063;55.700;26.994;2022-07-21T04:15:56;2.7;2.2;1.9
72918;PMS7003;61063;55.700;26.994;2022-07-21T04:20:56;3.1;2.6;2.3
72918;PMS7003;61063;55.700;26.994;2022-07-21T04:25:56;3.2;2.3;2.1
72918;PMS7003;61063;55.700;26.994;2022-07-21T04:30:56;4.2;2.7;2.3
72918;PMS7003;61063;55.700;26.994;2022-07-21T04:35:56;3.1;2.5;2
72918;PMS7003;61063;55.700;26.994;2022-07-21T04:40:56;2.6;2;1.6
72918;PMS7003;61063;55.700;26.994;2022-07-21T04:45:56;4.2;2.9;2.5
72918;PMS7003;61063;55.700;26.994;2022-07-21T04:50:56;2.9;2.5;2.1
72918;PMS7003;61063;55.700;26.994;2022-07-21T04:55:56;3.7;2.9;2.4
72918;PMS7003;61063;55.700;26.994;2022-07-21T05:00:56;3.3;2.6;2.3
72918;PMS7003;61063;55.700;26.994;2022-07-21T05:05:56;2.9;2.4;2
72918;PMS7003;61063;55.700;26.994;2022-07-21T05:10:56;3.5;2.1;1.7
72918;PMS7003;61063;55.700;26.994;2022-07-21T05:15:56;2.8;2.5;2.1
72918;PMS7003;61063;55.700;26.994;2022-07-21T05:20:56;3.1;2.4;2
72918;PMS7003;61063;55.700;26.994;2022-07-21T05:25:56;3.3;2.6;2.3
72918;PMS7003;61063;55.700;26.994;2022-07-21T05:30:56;3.1;1.9;1.7
72918;PMS7003;61063;55.700;26.994;2022-07-21T05:35:56;2.9;2.4;2
72918;PMS7003;61063;55.700;26.994;2022-07-21T05:40:56;2.9;2.3;1.9
72918;PMS7003;61063;55.700;26.994;2022-07-21T05:45:57;2.6;2.3;1.9
72918;PMS7003;61063;55.700;26.994;2022-07-21T05:50:56;3;2;1.8
72918;PMS7003;61063;55.700;26.994;2022-07-21T05:55:56;2.9;2.3;2.1
72918;PMS7003;61063;55.700;26.994;2022-07-21T06:00:56;2.8;2.2;1.9
72918;PMS7003;61063;55.700;26.994;2022-07-21T06:05:56;2.7;2.2;1.8
72918;PMS7003;61063;55.700;26.994;2022-07-21T06:10:56;2.4;2;1.6
72918;PMS7003;61063;55.700;26.994;2022-07-21T06:15:56;2.2;1.8;1.6
72918;PMS7003;61063;55.700;26.994;2022-07-21T06:20:56;2.6;2.1;1.7
72918;PMS7003;61063;55.700;26.994;2022-07-21T06:25:56;2.2;1.8;1.5
72918;PMS7003;61063;55.700;26.994;2022-07-21T06:30:56;1.8;1.5;1.2
72918;PMS7003;61063;55.700;26.994;2022-07-21T06:35:56;2.2;1.6;1.3
72918;PMS7003;61063;55.700;26.994;2022-07-21T06:40:56;2.1;1.9;1.6
72918;PMS7003;61063;55.700;26.994;2022-07-21T06:45:57;1.9;1.8;1.6
72918;PMS7003;61063;55.700;26.994;2022-07-21T06:50:56;1.9;1.6;1.2
72918;PMS7003;61063;55.700;26.994;2022-07-21T06:55:56;2.1;1.5;1.2
72918;PMS7003;61063;55.700;26.994;2022-07-21T07:00:56;2.2;1.7;1.3
72918;PMS7003;61063;55.700;26.994;2022-07-21T07:05:56;1.6;1.5;1.3
72918;PMS7003;61063;55.700;26.994;2022-07-21T07:10:56;1.2;1.2;1
72918;PMS7003;61063;55.700;26.994;2022-07-21T07:15:56;1.9;1.6;1.4
72918;PMS7003;61063;55.700;26.994;2022-07-21T07:20:56;1.8;1.5;1.3
72918;PMS7003;61063;55.700;26.994;2022-07-21T07:25:56;2.4;1.5;1.4
72918;PMS7003;61063;55.700;26.994;2022-07-21T07:30:56;1.9;1.5;1.3
72918;PMS7003;61063;55.700;26.994;2022-07-21T07:35:56;1.5;1.3;1.1
72918;PMS7003;61063;55.700;26.994;2022-07-21T07:40:56;1.4;1;0.8
72918;PMS7003;61063;55.700;26.994;2022-07-21T07:45:56;1.4;1.4;1.2
72918;PMS7003;61063;55.700;26.994;2022-07-21T07:50:56;1.7;1.1;0.9
72918;PMS7003;61063;55.700;26.994;2022-07-21T07:55:56;1.5;1.3;1
72918;PMS7003;61063;55.700;26.994;2022-07-21T08:00:56;1.5;1.2;1.1
72918;PMS7003;61063;55.700;26.994;2022-07-21T08:05:56;1.4;1.1;1
72918;PMS7003;61063;55.700;26.994;2022-07-21T08:10:57;1.3;1.2;1
72918;PMS7003;61063;55.700;26.994;2022-07-21T08:15:56;1.8;1.2;1.1
72918;PMS7003;61063;55.700;26.994;2022-07-21T08:20:56;1.7;1;0.8
72918;PMS7003;61063;55.700;26.994;2022-07-21T08:25:56;1.4;1.1;1
72918;PMS7003;61063;55.700;26.994;2022-07-21T08:30:56;1.4;1;0.9
72918;PMS7003;61063;55.700;26.994;2022-07-21T08:35:56;1.5;1.1;0.9
72918;PMS7003;61063;55.700;26.994;2022-07-21T08:40:56;1.1;0.8;0.7
72918;PMS7003;61063;55.700;26.994;2022-07-21T08:45:56;1.1;0.8;0.7
72918;PMS7003;61063;55.700;26.994;2022-07-21T08:50:57;1.2;0.8;0.7
72918;PMS7003;61063;55.700;26.994;2022-07-21T08:55:56;1.5;0.9;0.8
72918;PMS7003;61063;55.700;26.994;2022-07-21T09:00:56;1.1;0.7;0.5
72918;PMS7003;61063;55.700;26.994;2022-07-21T09:06:05;1.4;1.2;0.9
72918;PMS7003;61063;55.700;26.994;2022-07-21T09:11:28;1.1;1.1;1
72918;PMS7003;61063;55.700;26.994;2022-07-21T09:15:56;1.1;0.8;0.7
72918;PMS7003;61063;55.700;26.994;2022-07-21T09:20:56;1.1;0.7;0.7
72918;PMS7003;61063;55.700;26.994;2022-07-21T09:25:57;10.6;8.8;6
72918;PMS7003;61063;55.700;26.994;2022-07-21T09:31:00;20.9;16.8;11.1
72918;PMS7003;61063;55.700;26.994;2022-07-21T09:35:58;34;24.5;14.3
72918;PMS7003;61063;55.700;26.994;2022-07-21T09:41:13;31.8;23.5;14
72918;PMS7003;61063;55.700;26.994;2022-07-21T09:45:59;8.7;7.2;4.9
72918;PMS7003;61063;55.700;26.994;2022-07-21T09:50:56;8.6;6.6;5.2
72918;PMS7003;61063;55.700;26.994;2022-07-21T09:55:56;2.1;1.5;1.2
72918;PMS7003;61063;55.700;26.994;2022-07-21T10:00:56;15.8;13;9
72918;PMS7003;61063;55.700;26.994;2022-07-21T10:05:56;2.9;2.1;1.6
72918;PMS7003;61063;55.700;26.994;2022-07-21T10:10:56;5.5;4.5;3.5
72918;PMS7003;61063;55.700;26.994;2022-07-21T10:15:57;22.4;16.4;10.8
72918;PMS7003;61063;55.700;26.994;2022-07-21T10:20:59;17.2;13.3;8.9
72918;PMS7003;61063;55.700;26.994;2022-07-21T10:25:56;7.3;6;4.1
72918;PMS7003;61063;55.700;26.994;2022-07-21T10:30:58;7.9;7;5.4
72918;PMS7003;61063;55.700;26.994;2022-07-21T10:35:56;1.3;0.9;0.9
72918;PMS7003;61063;55.700;26.994;2022-07-21T10:40:57;2.9;2.3;1.8
72918;PMS7003;61063;55.700;26.994;2022-07-21T10:45:57;8.1;6.9;5.5
72918;PMS7003;61063;55.700;26.994;2022-07-21T10:50:58;7;5.4;3.8
72918;PMS7003;61063;55.700;26.994;2022-07-21T10:55:56;3.9;3.4;2.7
72918;PMS7003;61063;55.700;26.994;2022-07-21T11:00:58;4.8;4;3.2
72918;PMS7003;61063;55.700;26.994;2022-07-21T11:06:28;5.2;4.5;3.7
72918;PMS7003;61063;55.700;26.994;2022-07-21T11:11:06;7.5;5.6;4.4
72918;PMS7003;61063;55.700;26.994;2022-07-21T11:15:58;3.5;2.8;2.4
72918;PMS7003;61063;55.700;26.994;2022-07-21T11:21:00;3.1;2.1;1.5
72918;PMS7003;61063;55.700;26.994;2022-07-21T11:25:56;2.7;2.1;1.8
72918;PMS7003;61063;55.700;26.994;2022-07-21T11:31:14;2.8;2.5;2.2
72918;PMS7003;61063;55.700;26.994;2022-07-21T11:35:56;6.2;5.2;3.8
72918;PMS7003;61063;55.700;26.994;2022-07-21T11:41:28;10.2;7.8;5.6
72918;PMS7003;61063;55.700;26.994;2022-07-21T11:45:57;8;6.9;5.1
72918;PMS7003;61063;55.700;26.994;2022-07-21T11:50:58;2.9;2.6;2
72918;PMS7003;61063;55.700;26.994;2022-07-21T11:55:56;4.2;3.9;3
72918;PMS7003;61063;55.700;26.994;2022-07-21T12:01:04;2.7;2.1;1.8
72918;PMS7003;61063;55.700;26.994;2022-07-21T12:05:56;2;1.5;1.1
72918;PMS7003;61063;55.700;26.994;2022-07-21T12:11:12;14.1;12;8.1
72918;PMS7003;61063;55.700;26.994;2022-07-21T12:15:56;17.6;14.7;11
72918;PMS7003;61063;55.700;26.994;2022-07-21T12:21:00;12.6;11;8.3
72918;PMS7003;61063;55.700;26.994;2022-07-21T12:25:58;19.1;15.9;11.6
72918;PMS7003;61063;55.700;26.994;2022-07-21T12:30:56;16.4;13.9;10.1
72918;PMS7003;61063;55.700;26.994;2022-07-21T12:36:00;13.9;11.7;8.8
72918;PMS7003;61063;55.700;26.994;2022-07-21T12:40:56;12.9;11.3;8.3
72918;PMS7003;61063;55.700;26.994;2022-07-21T12:45:58;11;9.8;7.9
72918;PMS7003;61063;55.700;26.994;2022-07-21T12:51:28;5.4;4.2;3.4
72918;PMS7003;61063;55.700;26.994;2022-07-21T12:55:56;5.6;4.7;3.6
72918;PMS7003;61063;55.700;26.994;2022-07-21T13:00:56;4.7;3.9;3.3
72918;PMS7003;61063;55.700;26.994;2022-07-21T13:05:57;3;2.5;2.1
72918;PMS7003;61063;55.700;26.994;2022-07-21T13:10:56;6;4.7;3.4
72918;PMS7003;61063;55.700;26.994;2022-07-21T13:15:57;3.4;2.6;2.1
72918;PMS7003;61063;55.700;26.994;2022-07-21T13:20:56;2.9;2.3;1.7
72918;PMS7003;61063;55.700;26.994;2022-07-21T13:25:56;3.4;2.4;2
72918;PMS7003;61063;55.700;26.994;2022-07-21T13:30:56;2.7;2.1;1.5
72918;PMS7003;61063;55.700;26.994;2022-07-21T13:35:56;2.4;2;1.6
72918;PMS7003;61063;55.700;26.994;2022-07-21T13:40:57;3.4;2.2;2
72918;PMS7003;61063;55.700;26.994;2022-07-21T13:45:57;2.5;2;1.8
72918;PMS7003;61063;55.700;26.994;2022-07-21T13:50:56;2.3;2.1;1.9
72918;PMS7003;61063;55.700;26.994;2022-07-21T13:55:56;2.7;2.1;1.9
72918;PMS7003;61063;55.700;26.994;2022-07-21T14:00:56;2.6;1.8;1.5
72918;PMS7003;61063;55.700;26.994;2022-07-21T14:05:56;2.9;1.9;1.7
72918;PMS7003;61063;55.700;26.994;2022-07-21T14:10:56;2.1;1.8;1.5
72918;PMS7003;61063;55.700;26.994;2022-07-21T14:15:56;2.2;1.7;1.4
72918;PMS7003;61063;55.700;26.994;2022-07-21T14:20:56;2.2;1.6;1.3
72918;PMS7003;61063;55.700;26.994;2022-07-21T14:25:56;2.7;2.1;1.8
72918;PMS7003;61063;55.700;26.994;2022-07-21T14:30:56;4.3;3.4;2.9
72918;PMS7003;61063;55.700;26.994;2022-07-21T14:35:57;1.9;1.5;1.3
72918;PMS7003;61063;55.700;26.994;2022-07-21T14:40:56;2.1;1.6;1.5
72918;PMS7003;61063;55.700;26.994;2022-07-21T14:45:56;2.3;1.4;1.1
72918;PMS7003;61063;55.700;26.994;2022-07-21T14:50:56;1.9;1.4;1.2
72918;PMS7003;61063;55.700;26.994;2022-07-21T14:55:56;1.4;1.4;1.1
72918;PMS7003;61063;55.700;26.994;2022-07-21T15:00:56;2;1.5;1.4
72918;PMS7003;61063;55.700;26.994;2022-07-21T15:05:56;3.1;2.3;2.1
72918;PMS7003;61063;55.700;26.994;2022-07-21T15:10:56;4.9;3.7;2.9
72918;PMS7003;61063;55.700;26.994;2022-07-21T15:15:56;2.5;2;1.5
72918;PMS7003;61063;55.700;26.994;2022-07-21T15:20:56;1.7;1.5;1.4
72918;PMS7003;61063;55.700;26.994;2022-07-21T15:25:56;2.3;1.4;1.2
72918;PMS7003;61063;55.700;26.994;2022-07-21T15:30:56;1.7;1.4;1.2
72918;PMS7003;61063;55.700;26.994;2022-07-21T15:35:56;2.1;1.7;1.5
72918;PMS7003;61063;55.700;26.994;2022-07-21T15:40:56;2;1.6;1.2
72918;PMS7003;61063;55.700;26.994;2022-07-21T15:45:56;2.5;2.1;1.6
72918;PMS7003;61063;55.700;26.994;2022-07-21T15:50:56;2.5;2.2;1.8
72918;PMS7003;61063;55.700;26.994;2022-07-21T15:55:56;4.2;2.4;1.9
72918;PMS7003;61063;55.700;26.994;2022-07-21T16:00:57;2.3;1.9;1.7
72918;PMS7003;61063;55.700;26.994;2022-07-21T16:05:56;2;1.5;1.2
72918;PMS7003;61063;55.700;26.994;2022-07-21T16:10:56;2.2;1.8;1.4
72918;PMS7003;61063;55.700;26.994;2022-07-21T16:15:56;2.3;1.6;1.4
72918;PMS7003;61063;55.700;26.994;2022-07-21T16:20:56;6.8;4.4;2.9
72918;PMS7003;61063;55.700;26.994;2022-07-21T16:25:56;2;1.7;1.4
72918;PMS7003;61063;55.700;26.994;2022-07-21T16:30:56;2.3;1.9;1.5
72918;PMS7003;61063;55.700;26.994;2022-07-21T16:35:56;2.2;1.5;1.4
72918;PMS7003;61063;55.700;26.994;2022-07-21T16:40:56;1.6;1.2;1
72918;PMS7003;61063;55.700;26.994;2022-07-21T16:45:56;1.7;1.2;1
72918;PMS7003;61063;55.700;26.994;2022-07-21T16:50:56;2.2;1.7;1.6
72918;PMS7003;61063;55.700;26.994;2022-07-21T16:55:56;2.4;1.6;1.3
72918;PMS7003;61063;55.700;26.994;2022-07-21T17:00:56;2.3;1.7;1.4
72918;PMS7003;61063;55.700;26.994;2022-07-21T17:05:56;2.4;2.1;1.8
72918;PMS7003;61063;55.700;26.994;2022-07-21T17:10:56;2.3;1.7;1.4
72918;PMS7003;61063;55.700;26.994;2022-07-21T17:15:56;2.6;1.3;1.1
72918;PMS7003;61063;55.700;26.994;2022-07-21T17:20:56;2.1;1.6;1.3
72918;PMS7003;61063;55.700;26.994;2022-07-21T17:25:56;1.9;1.4;1.2
72918;PMS7003;61063;55.700;26.994;2022-07-21T17:30:56;3.5;2.2;1.9
72918;PMS7003;61063;55.700;26.994;2022-07-21T17:35:56;3.2;2.2;1.9
72918;PMS7003;61063;55.700;26.994;2022-07-21T17:40:56;3.2;2.2;2
72918;PMS7003;61063;55.700;26.994;2022-07-21T17:45:56;2.6;2.1;1.8
72918;PMS7003;61063;55.700;26.994;2022-07-21T17:50:56;3.1;2.5;2
72918;PMS7003;61063;55.700;26.994;2022-07-21T17:55:56;2.9;2;1.6
72918;PMS7003;61063;55.700;26.994;2022-07-21T18:00:56;3.6;2.7;2.3
72918;PMS7003;61063;55.700;26.994;2022-07-21T18:05:56;2.5;2;1.7
72918;PMS7003;61063;55.700;26.994;2022-07-21T18:10:56;11.5;9.9;7.6
72918;PMS7003;61063;55.700;26.994;2022-07-21T18:15:56;14.3;12.8;10
72918;PMS7003;61063;55.700;26.994;2022-07-21T18:20:56;6.1;5.2;4.3
72918;PMS7003;61063;55.700;26.994;2022-07-21T18:25:56;5;4.4;3.8
72918;PMS7003;61063;55.700;26.994;2022-07-21T18:30:56;4.1;3.7;3.2
72918;PMS7003;61063;55.700;26.994;2022-07-21T18:35:56;2.9;2.5;2.1
72918;PMS7003;61063;55.700;26.994;2022-07-21T18:40:56;19.3;16.8;13.4
72918;PMS7003;61063;55.700;26.994;2022-07-21T18:45:56;13;12.1;10
72918;PMS7003;61063;55.700;26.994;2022-07-21T18:50:56;33;26.9;18
72918;PMS7003;61063;55.700;26.994;2022-07-21T18:55:56;37.7;30.4;20.2
72918;PMS7003;61063;55.700;26.994;2022-07-21T19:00:56;13.9;12.5;9.2
72918;PMS7003;61063;55.700;26.994;2022-07-21T19:05:56;3.8;3.4;3
72918;PMS7003;61063;55.700;26.994;2022-07-21T19:10:56;3;2.4;2
72918;PMS7003;61063;55.700;26.994;2022-07-21T19:15:57;3.4;2.3;1.9
72918;PMS7003;61063;55.700;26.994;2022-07-21T19:20:56;3.3;2.5;2.1
72918;PMS7003;61063;55.700;26.994;2022-07-21T19:25:56;2.8;2.6;2.3
72918;PMS7003;61063;55.700;26.994;2022-07-21T19:30:56;6.7;6.1;5.3
72918;PMS7003;61063;55.700;26.994;2022-07-21T19:35:56;2.8;2.3;2
72918;PMS7003;61063;55.700;26.994;2022-07-21T19:40:56;3;2.4;2
72918;PMS7003;61063;55.700;26.994;2022-07-21T19:45:56;3.5;2.7;2.3
72918;PMS7003;61063;55.700;26.994;2022-07-21T19:50:56;3.2;2.4;2.1
72918;PMS7003;61063;55.700;26.994;2022-07-21T19:55:56;3.1;2.5;2
72918;PMS7003;61063;55.700;26.994;2022-07-21T20:00:57;2.9;2.4;2.2
72918;PMS7003;61063;55.700;26.994;2022-07-21T20:05:56;2.3;2;1.6
72918;PMS7003;61063;55.700;26.994;2022-07-21T20:10:56;3.2;2.5;2.1
72918;PMS7003;61063;55.700;26.994;2022-07-21T20:15:56;3.1;2.5;2.1
72918;PMS7003;61063;55.700;26.994;2022-07-21T20:20:56;3.4;2.8;2.3
72918;PMS7003;61063;55.700;26.994;2022-07-21T20:25:57;3.5;2.8;2.3
72918;PMS7003;61063;55.700;26.994;2022-07-21T20:30:56;3.5;3.3;3
72918;PMS7003;61063;55.700;26.994;2022-07-21T20:35:56;3.3;2.7;2.2
72918;PMS7003;61063;55.700;26.994;2022-07-21T20:40:56;3.1;2.6;2.1
72918;PMS7003;61063;55.700;26.994;2022-07-21T20:45:56;2.6;2.2;2
72918;PMS7003;61063;55.700;26.994;2022-07-21T20:50:56;2.9;2.1;1.9
72918;PMS7003;61063;55.700;26.994;2022-07-21T20:55:57;3.1;2.7;2.2
72918;PMS7003;61063;55.700;26.994;2022-07-21T21:00:56;1.9;1.9;1.6
72918;PMS7003;61063;55.700;26.994;2022-07-21T21:05:56;2.4;2;1.8
72918;PMS7003;61063;55.700;26.994;2022-07-21T21:10:56;2.4;2;1.9
72918;PMS7003;61063;55.700;26.994;2022-07-21T21:15:56;3.1;2.5;1.9
72918;PMS7003;61063;55.700;26.994;2022-07-21T21:20:56;2.7;2.2;1.9
72918;PMS7003;61063;55.700;26.994;2022-07-21T21:25:56;3;2.3;1.9
72918;PMS7003;61063;55.700;26.994;2022-07-21T21:30:56;3.3;2.6;2.1
72918;PMS7003;61063;55.700;26.994;2022-07-21T21:35:56;3;2.5;2.3
72918;PMS7003;61063;55.700;26.994;2022-07-21T21:40:56;2.9;2.4;2.1
72918;PMS7003;61063;55.700;26.994;2022-07-21T21:45:56;3.1;2.4;2.1
72918;PMS7003;61063;55.700;26.994;2022-07-21T21:50:56;2.9;2.5;2.2
72918;PMS7003;61063;55.700;26.994;2022-07-21T21:55:57;3.2;2.2;1.8
72918;PMS7003;61063;55.700;26.994;2022-07-21T22:00:56;2.8;2.4;2.1
72918;PMS7003;61063;55.700;26.994;2022-07-21T22:05:56;2.8;2.4;2.1
72918;PMS7003;61063;55.700;26.994;2022-07-21T22:10:56;2.9;2.6;2.2
72918;PMS7003;61063;55.700;26.994;2022-07-21T22:15:56;2.8;2.7;2.4
72918;PMS7003;61063;55.700;26.994;2022-07-21T22:20:56;3.1;2.9;2.5
72918;PMS7003;61063;55.700;26.994;2022-07-21T22:25:56;3.1;2.5;2.2
72918;PMS7003;61063;55.700;26.994;2022-07-21T22:30:56;3.1;2.9;2.4
72918;PMS7003;61063;55.700;26.994;2022-07-21T22:35:56;3.6;3.1;2.8
72918;PMS7003;61063;55.700;26.994;2022-07-21T22:40:56;4.2;3.3;2.7
72918;PMS7003;61063;55.700;26.994;2022-07-21T22:45:56;3.8;2.9;2.4
72918;PMS7003;61063;55.700;26.994;2022-07-21T22:50:56;4;3;2.6
72918;PMS7003;61063;55.700;26.994;2022-07-21T22:55:56;3.5;3.2;2.9
72918;PMS7003;61063;55.700;26.994;2022-07-21T23:00:56;3.2;2.7;2.2
72918;PMS7003;61063;55.700;26.994;2022-07-21T23:05:56;3.6;2.9;2.6
72918;PMS7003;61063;55.700;26.994;2022-07-21T23:10:56;3.2;2.8;2.3
72918;PMS7003;61063;55.700;26.994;2022-07-21T23:15:56;2.9;2.5;2.4
72918;PMS7003;61063;55.700;26.994;2022-07-21T23:20:56;3;2.9;2.5
72918;PMS7003;61063;55.700;26.994;2022-07-21T23:25:56;3.1;2.8;2.4
72918;PMS7003;61063;55.700;26.994;2022-07-21T23:30:56;3.1;2.6;2.2
72918;PMS7003;61063;55.700;26.994;2022-07-21T23:35:56;3.1;2.7;2.3
72918;PMS7003;61063;55.700;26.994;2022-07-21T23:40:56;3.9;3;2.6
72918;PMS7003;61063;55.700;26.994;2022-07-21T23:45:56;3.1;2.4;2.1
72918;PMS7003;61063;55.700;26.994;2022-07-21T23:50:56;3.4;2.9;2.5
72918;PMS7003;61063;55.700;26.994;2022-07-21T23:55:56;3.1;2.8;2.4
